sensor_id;sensor_type;location;lat;lon;timestamp;pressure;altitude;pressure_sealevel;temperature;humidity
50368;BME280;36281;34.132;-118.018;2023-01-29T00:01:59;99855.44;;;18.20;46.04
50368;BME280;36281;34.132;-118.018;2023-01-29T00:04:29;99854.38;;;18.11;45.93
50368;BME280;36281;34.132;-118.018;2023-01-29T00:06:57;99854.34;;;18.05;47.08
50368;BME280;36281;34.132;-118.018;2023-01-29T00:09:26;99858.59;;;18.01;47.27
50368;BME280;36281;34.132;-118.018;2023-01-29T00:11:55;99858.31;;;17.98;47.63
50368;BME280;36281;34.132;-118.018;2023-01-29T00:14:23;99853.72;;;17.93;47.85
50368;BME280;36281;34.132;-118.018;2023-01-29T00:16:53;99854.22;;;17.85;48.19
50368;BME280;36281;34.132;-118.018;2023-01-29T00:19:21;99846.38;;;17.73;48.48
50368;BME280;36281;34.132;-118.018;2023-01-29T00:21:51;99851.91;;;17.62;49.21
50368;BME280;36281;34.132;-118.018;2023-01-29T00:24:19;99858.53;;;17.54;49.24
50368;BME280;36281;34.132;-118.018;2023-01-29T00:26:48;99856.09;;;17.47;49.59
50368;BME280;36281;34.132;-118.018;2023-01-29T00:29:16;99862.75;;;17.45;50.03
50368;BME280;36281;34.132;-118.018;2023-01-29T00:31:45;99860.31;;;17.38;49.97
50368;BME280;36281;34.132;-118.018;2023-01-29T00:34:14;99859.75;;;17.31;50.29
50368;BME280;36281;34.132;-118.018;2023-01-29T00:36:42;99857.25;;;17.24;50.55
50368;BME280;36281;34.132;-118.018;2023-01-29T00:39:13;99862.03;;;17.17;50.73
50368;BME280;36281;34.132;-118.018;2023-01-29T00:41:42;99862.78;;;17.13;51.17
50368;BME280;36281;34.132;-118.018;2023-01-29T00:44:28;99867.03;;;17.09;51.51
50368;BME280;36281;34.132;-118.018;2023-01-29T00:47:15;99869.94;;;17.02;51.72
50368;BME280;36281;34.132;-118.018;2023-01-29T00:50:02;99874.66;;;16.95;52.01
50368;BME280;36281;34.132;-118.018;2023-01-29T00:52:30;99872.47;;;16.87;52.69
50368;BME280;36281;34.132;-118.018;2023-01-29T00:55:01;99875.56;;;16.78;52.95
50368;BME280;36281;34.132;-118.018;2023-01-29T00:57:32;99881.34;;;16.70;53.02
50368;BME280;36281;34.132;-118.018;2023-01-29T01:00:00;99886.88;;;16.64;53.36
50368;BME280;36281;34.132;-118.018;2023-01-29T01:02:28;99896.97;;;16.57;53.54
50368;BME280;36281;34.132;-118.018;2023-01-29T01:05:15;99895.53;;;16.49;53.67
50368;BME280;36281;34.132;-118.018;2023-01-29T01:07:47;99898.63;;;16.41;54.01
50368;BME280;36281;34.132;-118.018;2023-01-29T01:10:17;99900.16;;;16.32;54.39
50368;BME280;36281;34.132;-118.018;2023-01-29T01:12:50;99908.59;;;16.23;54.61
50368;BME280;36281;34.132;-118.018;2023-01-29T01:15:19;99911.47;;;16.17;55.17
50368;BME280;36281;34.132;-118.018;2023-01-29T01:17:50;99912.94;;;16.08;55.79
50368;BME280;36281;34.132;-118.018;2023-01-29T01:20:18;99909.88;;;15.99;56.39
50368;BME280;36281;34.132;-118.018;2023-01-29T01:22:47;99913.28;;;15.94;56.85
50368;BME280;36281;34.132;-118.018;2023-01-29T01:25:15;99913.13;;;15.84;57.61
50368;BME280;36281;34.132;-118.018;2023-01-29T01:27:47;99915.72;;;15.79;58.11
50368;BME280;36281;34.132;-118.018;2023-01-29T01:30:15;99918.25;;;15.69;58.59
50368;BME280;36281;34.132;-118.018;2023-01-29T01:32:44;99917.34;;;15.63;58.73
50368;BME280;36281;34.132;-118.018;2023-01-29T01:35:12;99928.72;;;15.59;58.92
50368;BME280;36281;34.132;-118.018;2023-01-29T01:37:41;99929.72;;;15.52;59.09
50368;BME280;36281;34.132;-118.018;2023-01-29T01:40:11;99924.84;;;15.49;59.46
50368;BME280;36281;34.132;-118.018;2023-01-29T01:42:48;99928.97;;;15.40;59.95
50368;BME280;36281;34.132;-118.018;2023-01-29T01:45:20;99933.66;;;15.33;60.84
50368;BME280;36281;34.132;-118.018;2023-01-29T01:47:50;99937.50;;;15.25;60.89
50368;BME280;36281;34.132;-118.018;2023-01-29T01:50:19;99956.09;;;15.20;60.86
50368;BME280;36281;34.132;-118.018;2023-01-29T01:52:50;99954.16;;;15.16;60.96
50368;BME280;36281;34.132;-118.018;2023-01-29T01:55:20;99954.06;;;15.11;61.29
50368;BME280;36281;34.132;-118.018;2023-01-29T01:57:53;99967.09;;;15.07;61.48
50368;BME280;36281;34.132;-118.018;2023-01-29T02:00:24;99957.34;;;15.01;61.75
50368;BME280;36281;34.132;-118.018;2023-01-29T02:02:53;99962.03;;;14.94;62.04
50368;BME280;36281;34.132;-118.018;2023-01-29T02:05:40;99967.81;;;14.91;62.30
50368;BME280;36281;34.132;-118.018;2023-01-29T02:08:29;99961.94;;;14.89;62.52
50368;BME280;36281;34.132;-118.018;2023-01-29T02:11:17;99968.78;;;14.85;62.80
50368;BME280;36281;34.132;-118.018;2023-01-29T02:13:47;99970.06;;;14.82;63.36
50368;BME280;36281;34.132;-118.018;2023-01-29T02:16:20;99970.78;;;14.78;63.63
50368;BME280;36281;34.132;-118.018;2023-01-29T02:18:48;99974.72;;;14.75;64.05
50368;BME280;36281;34.132;-118.018;2023-01-29T02:21:19;99974.72;;;14.75;64.22
50368;BME280;36281;34.132;-118.018;2023-01-29T02:26:49;99981.56;;;14.71;64.46
50368;BME280;36281;34.132;-118.018;2023-01-29T02:29:24;99975.41;;;14.70;64.44
50368;BME280;36281;34.132;-118.018;2023-01-29T02:32:11;99977.28;;;14.70;64.30
50368;BME280;36281;34.132;-118.018;2023-01-29T02:34:46;99980.66;;;14.65;64.74
50368;BME280;36281;34.132;-118.018;2023-01-29T02:37:35;99981.47;;;14.66;64.53
50368;BME280;36281;34.132;-118.018;2023-01-29T02:40:11;99988.09;;;14.63;64.68
50368;BME280;36281;34.132;-118.018;2023-01-29T02:42:43;99987.28;;;14.63;64.64
50368;BME280;36281;34.132;-118.018;2023-01-29T02:45:17;99987.50;;;14.61;64.87
50368;BME280;36281;34.132;-118.018;2023-01-29T02:47:47;99986.69;;;14.61;64.96
50368;BME280;36281;34.132;-118.018;2023-01-29T02:50:18;99986.56;;;14.56;65.01
50368;BME280;36281;34.132;-118.018;2023-01-29T02:52:50;99983.69;;;14.57;65.01
50368;BME280;36281;34.132;-118.018;2023-01-29T02:55:22;99992.97;;;14.55;65.34
50368;BME280;36281;34.132;-118.018;2023-01-29T02:57:54;99996.09;;;14.52;65.19
50368;BME280;36281;34.132;-118.018;2023-01-29T03:00:25;99998.19;;;14.50;65.62
50368;BME280;36281;34.132;-118.018;2023-01-29T03:02:55;100002.47;;;14.51;65.87
50368;BME280;36281;34.132;-118.018;2023-01-29T03:05:26;100007.66;;;14.45;66.15
50368;BME280;36281;34.132;-118.018;2023-01-29T03:07:57;100001.97;;;14.42;66.45
50368;BME280;36281;34.132;-118.018;2023-01-29T03:10:28;100001.41;;;14.40;66.43
50368;BME280;36281;34.132;-118.018;2023-01-29T03:13:00;100006.97;;;14.38;66.65
50368;BME280;36281;34.132;-118.018;2023-01-29T03:15:33;100002.34;;;14.34;66.96
50368;BME280;36281;34.132;-118.018;2023-01-29T03:18:06;100006.88;;;14.33;67.01
50368;BME280;36281;34.132;-118.018;2023-01-29T03:20:36;100011.59;;;14.31;67.21
50368;BME280;36281;34.132;-118.018;2023-01-29T03:23:07;100012.53;;;14.25;67.26
50368;BME280;36281;34.132;-118.018;2023-01-29T03:25:38;100012.53;;;14.25;67.31
50368;BME280;36281;34.132;-118.018;2023-01-29T03:28:26;100012.78;;;14.23;67.34
50368;BME280;36281;34.132;-118.018;2023-01-29T03:31:14;100011.47;;;14.26;67.39
50368;BME280;36281;34.132;-118.018;2023-01-29T03:34:05;100014.63;;;14.23;67.24
50368;BME280;36281;34.132;-118.018;2023-01-29T03:36:35;100011.97;;;14.23;67.32
50368;BME280;36281;34.132;-118.018;2023-01-29T03:39:12;100020.75;;;14.23;67.18
50368;BME280;36281;34.132;-118.018;2023-01-29T03:41:42;100013.81;;;14.22;67.22
50368;BME280;36281;34.132;-118.018;2023-01-29T03:44:14;100023.06;;;14.20;67.15
50368;BME280;36281;34.132;-118.018;2023-01-29T03:46:47;100017.97;;;14.18;67.46
50368;BME280;36281;34.132;-118.018;2023-01-29T03:49:20;100025.16;;;14.18;67.41
50368;BME280;36281;34.132;-118.018;2023-01-29T03:51:52;100029.44;;;14.19;67.53
50368;BME280;36281;34.132;-118.018;2023-01-29T03:54:22;100030.50;;;14.18;67.55
50368;BME280;36281;34.132;-118.018;2023-01-29T03:56:56;100029.69;;;14.17;67.67
50368;BME280;36281;34.132;-118.018;2023-01-29T03:59:30;100034.41;;;14.15;67.67
50368;BME280;36281;34.132;-118.018;2023-01-29T04:02:02;100044.03;;;14.16;67.86
50368;BME280;36281;34.132;-118.018;2023-01-29T04:04:32;100047.16;;;14.13;68.19
50368;BME280;36281;34.132;-118.018;2023-01-29T04:07:02;100048.78;;;14.14;67.88
50368;BME280;36281;34.132;-118.018;2023-01-29T04:09:34;100057.00;;;14.13;67.94
50368;BME280;36281;34.132;-118.018;2023-01-29T04:12:04;100071.13;;;14.13;68.11
50368;BME280;36281;34.132;-118.018;2023-01-29T04:14:36;100068.69;;;14.12;68.25
50368;BME280;36281;34.132;-118.018;2023-01-29T04:17:08;100071.34;;;14.12;68.15
50368;BME280;36281;34.132;-118.018;2023-01-29T04:19:38;100077.97;;;14.09;68.01
50368;BME280;36281;34.132;-118.018;2023-01-29T04:22:06;100082.47;;;14.09;68.11
50368;BME280;36281;34.132;-118.018;2023-01-29T04:24:37;100081.44;;;14.10;68.02
50368;BME280;36281;34.132;-118.018;2023-01-29T04:27:08;100072.88;;;14.08;67.95
50368;BME280;36281;34.132;-118.018;2023-01-29T04:29:42;100076.34;;;14.08;67.69
50368;BME280;36281;34.132;-118.018;2023-01-29T04:32:17;100076.34;;;14.08;67.76
50368;BME280;36281;34.132;-118.018;2023-01-29T04:34:50;100074.72;;;14.07;67.68
50368;BME280;36281;34.132;-118.018;2023-01-29T04:37:25;100074.13;;;14.05;67.65
50368;BME280;36281;34.132;-118.018;2023-01-29T04:39:58;100080.25;;;14.06;67.59
50368;BME280;36281;34.132;-118.018;2023-01-29T04:42:30;100083.41;;;14.03;67.93
50368;BME280;36281;34.132;-118.018;2023-01-29T04:45:02;100079.09;;;14.02;67.72
50368;BME280;36281;34.132;-118.018;2023-01-29T04:47:35;100085.47;;;14.01;67.57
50368;BME280;36281;34.132;-118.018;2023-01-29T04:50:08;100088.94;;;14.01;67.80
50368;BME280;36281;34.132;-118.018;2023-01-29T04:52:43;100084.88;;;13.99;68.25
50368;BME280;36281;34.132;-118.018;2023-01-29T04:55:16;100074.44;;;13.97;68.30
50368;BME280;36281;34.132;-118.018;2023-01-29T04:57:47;100083.28;;;13.98;68.60
50368;BME280;36281;34.132;-118.018;2023-01-29T05:00:17;100081.50;;;13.91;68.82
50368;BME280;36281;34.132;-118.018;2023-01-29T05:02:48;100077.81;;;13.92;69.29
50368;BME280;36281;34.132;-118.018;2023-01-29T05:05:19;100072.56;;;13.86;69.68
50368;BME280;36281;34.132;-118.018;2023-01-29T05:07:48;100080.56;;;13.86;69.97
50368;BME280;36281;34.132;-118.018;2023-01-29T05:10:17;100077.53;;;13.82;70.17
50368;BME280;36281;34.132;-118.018;2023-01-29T05:12:50;100069.56;;;13.82;70.54
50368;BME280;36281;34.132;-118.018;2023-01-29T05:15:22;100073.25;;;13.81;70.55
50368;BME280;36281;34.132;-118.018;2023-01-29T05:17:53;100073.13;;;13.76;70.70
50368;BME280;36281;34.132;-118.018;2023-01-29T05:20:29;100068.28;;;13.73;70.49
50368;BME280;36281;34.132;-118.018;2023-01-29T05:22:59;100069.66;;;13.76;70.39
50368;BME280;36281;34.132;-118.018;2023-01-29T05:25:28;100069.09;;;13.74;70.48
50368;BME280;36281;34.132;-118.018;2023-01-29T05:27:56;100069.09;;;13.74;70.46
50368;BME280;36281;34.132;-118.018;2023-01-29T05:30:35;100076.84;;;13.75;70.04
50368;BME280;36281;34.132;-118.018;2023-01-29T05:33:09;100064.56;;;13.74;70.03
50368;BME280;36281;34.132;-118.018;2023-01-29T05:35:39;100070.13;;;13.73;69.68
50368;BME280;36281;34.132;-118.018;2023-01-29T05:38:07;100067.47;;;13.73;69.39
50368;BME280;36281;34.132;-118.018;2023-01-29T05:40:36;100064.81;;;13.73;69.92
50368;BME280;36281;34.132;-118.018;2023-01-29T05:43:04;100060.72;;;13.70;69.88
50368;BME280;36281;34.132;-118.018;2023-01-29T05:45:33;100048.25;;;13.70;69.47
50368;BME280;36281;34.132;-118.018;2023-01-29T05:48:01;100058.06;;;13.70;69.57
50368;BME280;36281;34.132;-118.018;2023-01-29T05:50:31;100047.44;;;13.70;69.62
50368;BME280;36281;34.132;-118.018;2023-01-29T05:53:00;100055.66;;;13.68;69.42
50368;BME280;36281;34.132;-118.018;2023-01-29T05:55:28;100047.44;;;13.70;69.34
50368;BME280;36281;34.132;-118.018;2023-01-29T05:57:57;100043.16;;;13.69;69.00
50368;BME280;36281;34.132;-118.018;2023-01-29T06:00:25;100043.38;;;13.67;69.32
50368;BME280;36281;34.132;-118.018;2023-01-29T06:02:53;100032.50;;;13.69;69.34
50368;BME280;36281;34.132;-118.018;2023-01-29T06:05:23;100034.94;;;13.70;69.56
50368;BME280;36281;34.132;-118.018;2023-01-29T06:07:52;100027.75;;;13.71;69.60
50368;BME280;36281;34.132;-118.018;2023-01-29T06:10:21;100019.75;;;13.71;69.77
50368;BME280;36281;34.132;-118.018;2023-01-29T06:12:49;100019.56;;;13.73;70.07
50368;BME280;36281;34.132;-118.018;2023-01-29T06:15:17;100017.91;;;13.71;69.97
50368;BME280;36281;34.132;-118.018;2023-01-29T06:17:46;100020.00;;;13.69;69.84
50368;BME280;36281;34.132;-118.018;2023-01-29T06:20:14;100009.94;;;13.71;70.06
50368;BME280;36281;34.132;-118.018;2023-01-29T06:22:43;100011.78;;;13.71;69.94
50368;BME280;36281;34.132;-118.018;2023-01-29T06:25:13;100010.72;;;13.72;69.91
50368;BME280;36281;34.132;-118.018;2023-01-29T06:27:41;100017.34;;;13.69;69.95
50368;BME280;36281;34.132;-118.018;2023-01-29T06:30:10;100013.88;;;13.69;70.38
50368;BME280;36281;34.132;-118.018;2023-01-29T06:32:38;100015.94;;;13.67;70.67
50368;BME280;36281;34.132;-118.018;2023-01-29T06:35:06;100022.91;;;13.68;70.77
50368;BME280;36281;34.132;-118.018;2023-01-29T06:37:36;100014.31;;;13.66;70.30
50368;BME280;36281;34.132;-118.018;2023-01-29T06:40:05;100017.59;;;13.68;70.48
50368;BME280;36281;34.132;-118.018;2023-01-29T06:42:35;100006.56;;;13.64;70.01
50368;BME280;36281;34.132;-118.018;2023-01-29T06:45:04;100015.81;;;13.62;70.45
50368;BME280;36281;34.132;-118.018;2023-01-29T06:47:32;100014.78;;;13.63;70.94
50368;BME280;36281;34.132;-118.018;2023-01-29T06:50:00;100015.00;;;13.61;71.01
50368;BME280;36281;34.132;-118.018;2023-01-29T06:52:28;100016.63;;;13.62;71.08
50368;BME280;36281;34.132;-118.018;2023-01-29T06:54:57;100022.16;;;13.61;70.97
50368;BME280;36281;34.132;-118.018;2023-01-29T06:57:27;100015.22;;;13.60;71.22
50368;BME280;36281;34.132;-118.018;2023-01-29T06:59:57;100022.66;;;13.58;71.42
50368;BME280;36281;34.132;-118.018;2023-01-29T07:02:26;100028.41;;;13.55;71.37
50368;BME280;36281;34.132;-118.018;2023-01-29T07:04:54;100031.50;;;13.52;71.82
50368;BME280;36281;34.132;-118.018;2023-01-29T07:07:22;100030.13;;;13.49;71.76
50368;BME280;36281;34.132;-118.018;2023-01-29T07:09:51;100029.09;;;13.50;72.03
50368;BME280;36281;34.132;-118.018;2023-01-29T07:12:19;100033.03;;;13.48;71.96
50368;BME280;36281;34.132;-118.018;2023-01-29T07:14:47;100031.75;;;13.50;72.04
50368;BME280;36281;34.132;-118.018;2023-01-29T07:17:17;100027.47;;;13.49;72.24
50368;BME280;36281;34.132;-118.018;2023-01-29T07:19:47;100042.38;;;13.50;72.11
50368;BME280;36281;34.132;-118.018;2023-01-29T07:22:15;100036.50;;;13.48;71.88
50368;BME280;36281;34.132;-118.018;2023-01-29T07:24:43;100034.66;;;13.49;72.32
50368;BME280;36281;34.132;-118.018;2023-01-29T07:27:11;100039.16;;;13.48;72.08
50368;BME280;36281;34.132;-118.018;2023-01-29T07:29:40;100038.13;;;13.49;71.98
50368;BME280;36281;34.132;-118.018;2023-01-29T07:32:08;100039.97;;;13.49;71.70
50368;BME280;36281;34.132;-118.018;2023-01-29T07:34:38;100041.00;;;13.48;72.07
50368;BME280;36281;34.132;-118.018;2023-01-29T07:37:06;100039.97;;;13.49;72.11
50368;BME280;36281;34.132;-118.018;2023-01-29T07:39:34;100037.88;;;13.51;72.20
50368;BME280;36281;34.132;-118.018;2023-01-29T07:42:03;100029.66;;;13.52;71.94
50368;BME280;36281;34.132;-118.018;2023-01-29T07:44:31;100028.84;;;13.52;72.12
50368;BME280;36281;34.132;-118.018;2023-01-29T07:46:59;100029.31;;;13.49;72.42
50368;BME280;36281;34.132;-118.018;2023-01-29T07:49:27;100017.06;;;13.48;72.35
50368;BME280;36281;34.132;-118.018;2023-01-29T07:51:57;100022.81;;;13.44;72.34
50368;BME280;36281;34.132;-118.018;2023-01-29T07:54:26;100021.22;;;13.43;72.91
50368;BME280;36281;34.132;-118.018;2023-01-29T07:56:54;100021.78;;;13.45;72.72
50368;BME280;36281;34.132;-118.018;2023-01-29T07:59:22;100015.88;;;13.43;72.77
50368;BME280;36281;34.132;-118.018;2023-01-29T08:01:50;100014.25;;;13.42;73.00
50368;BME280;36281;34.132;-118.018;2023-01-29T08:04:19;100003.59;;;13.42;72.92
50368;BME280;36281;34.132;-118.018;2023-01-29T08:06:47;100015.28;;;13.41;73.22
50368;BME280;36281;34.132;-118.018;2023-01-29T08:09:17;100000.38;;;13.40;73.49
50368;BME280;36281;34.132;-118.018;2023-01-29T08:11:45;100001.66;;;13.38;73.42
50368;BME280;36281;34.132;-118.018;2023-01-29T08:14:13;99993.88;;;13.36;73.47
50368;BME280;36281;34.132;-118.018;2023-01-29T08:16:41;99999.44;;;13.35;72.97
50368;BME280;36281;34.132;-118.018;2023-01-29T08:19:10;99998.00;;;13.32;72.86
50368;BME280;36281;34.132;-118.018;2023-01-29T08:21:38;100001.28;;;13.34;72.54
50368;BME280;36281;34.132;-118.018;2023-01-29T08:24:06;99997.81;;;13.34;72.01
50368;BME280;36281;34.132;-118.018;2023-01-29T08:26:36;100001.28;;;13.34;71.86
50368;BME280;36281;34.132;-118.018;2023-01-29T08:29:04;99996.78;;;13.35;71.69
50368;BME280;36281;34.132;-118.018;2023-01-29T08:31:32;99991.22;;;13.36;71.45
50368;BME280;36281;34.132;-118.018;2023-01-29T08:34:01;100002.91;;;13.35;71.79
50368;BME280;36281;34.132;-118.018;2023-01-29T08:36:30;99995.16;;;13.34;72.00
50368;BME280;36281;34.132;-118.018;2023-01-29T08:38:58;100006.59;;;13.34;72.29
50368;BME280;36281;34.132;-118.018;2023-01-29T08:41:26;100001.28;;;13.34;71.79
50368;BME280;36281;34.132;-118.018;2023-01-29T08:43:56;99999.66;;;13.33;71.10
50368;BME280;36281;34.132;-118.018;2023-01-29T08:46:24;99996.19;;;13.33;70.78
50368;BME280;36281;34.132;-118.018;2023-01-29T08:48:52;99998.84;;;13.33;70.69
50368;BME280;36281;34.132;-118.018;2023-01-29T08:51:23;100002.09;;;13.35;70.59
50368;BME280;36281;34.132;-118.018;2023-01-29T08:53:52;100002.09;;;13.35;70.08
50368;BME280;36281;34.132;-118.018;2023-01-29T08:56:20;100002.91;;;13.35;70.26
50368;BME280;36281;34.132;-118.018;2023-01-29T08:58:48;100007.19;;;13.36;69.93
50368;BME280;36281;34.132;-118.018;2023-01-29T09:01:18;100002.66;;;13.37;69.59
50368;BME280;36281;34.132;-118.018;2023-01-29T09:03:47;100006.13;;;13.37;69.34
50368;BME280;36281;34.132;-118.018;2023-01-29T09:06:16;100006.13;;;13.37;68.88
50368;BME280;36281;34.132;-118.018;2023-01-29T09:08:44;100012.50;;;13.36;68.42
50368;BME280;36281;34.132;-118.018;2023-01-29T09:11:13;100008.22;;;13.35;68.75
50368;BME280;36281;34.132;-118.018;2023-01-29T09:13:41;100007.19;;;13.36;69.92
50368;BME280;36281;34.132;-118.018;2023-01-29T09:16:09;100006.59;;;13.34;70.09
50368;BME280;36281;34.132;-118.018;2023-01-29T09:18:39;100007.03;;;13.31;70.08
50368;BME280;36281;34.132;-118.018;2023-01-29T09:21:08;100003.81;;;13.29;69.94
50368;BME280;36281;34.132;-118.018;2023-01-29T09:23:36;100003.81;;;13.29;70.51
50368;BME280;36281;34.132;-118.018;2023-01-29T09:26:06;100006.69;;;13.28;70.40
50368;BME280;36281;34.132;-118.018;2023-01-29T09:28:34;100006.09;;;13.26;69.96
50368;BME280;36281;34.132;-118.018;2023-01-29T09:31:03;100009.56;;;13.26;69.86
50368;BME280;36281;34.132;-118.018;2023-01-29T09:33:31;100006.09;;;13.26;70.09
50368;BME280;36281;34.132;-118.018;2023-01-29T09:36:03;100004.47;;;13.25;69.97
50368;BME280;36281;34.132;-118.018;2023-01-29T09:38:31;100006.34;;;13.24;70.10
50368;BME280;36281;34.132;-118.018;2023-01-29T09:41:02;100003.06;;;13.22;70.08
50368;BME280;36281;34.132;-118.018;2023-01-29T09:43:38;100006.53;;;13.23;70.03
50368;BME280;36281;34.132;-118.018;2023-01-29T09:46:10;99999.00;;;13.19;70.05
50368;BME280;36281;34.132;-118.018;2023-01-29T09:48:41;99997.81;;;13.15;69.66
50368;BME280;36281;34.132;-118.018;2023-01-29T09:51:14;100000.25;;;13.17;69.31
50368;BME280;36281;34.132;-118.018;2023-01-29T09:53:47;100005.22;;;13.13;69.09
50368;BME280;36281;34.132;-118.018;2023-01-29T09:56:19;100001.28;;;13.16;69.05
50368;BME280;36281;34.132;-118.018;2023-01-29T09:58:48;99993.31;;;13.16;68.75
50368;BME280;36281;34.132;-118.018;2023-01-29T10:01:17;99993.06;;;13.17;67.71
50368;BME280;36281;34.132;-118.018;2023-01-29T10:03:56;99992.72;;;13.14;67.75
50368;BME280;36281;34.132;-118.018;2023-01-29T10:06:36;99984.16;;;13.12;68.41
50368;BME280;36281;34.132;-118.018;2023-01-29T10:11:58;99975.03;;;13.08;68.45
50368;BME280;36281;34.132;-118.018;2023-01-29T10:14:29;99975.84;;;13.08;68.12
50368;BME280;36281;34.132;-118.018;2023-01-29T10:17:08;99969.09;;;13.06;68.37
50368;BME280;36281;34.132;-118.018;2023-01-29T10:22:30;99970.16;;;13.05;68.65
50368;BME280;36281;34.132;-118.018;2023-01-29T10:25:03;99973.03;;;13.03;68.41
50368;BME280;36281;34.132;-118.018;2023-01-29T10:27:32;99974.06;;;13.02;69.13
50368;BME280;36281;34.132;-118.018;2023-01-29T10:30:02;99966.19;;;12.96;69.13
50368;BME280;36281;34.132;-118.018;2023-01-29T10:32:38;99972.91;;;12.98;69.36
50368;BME280;36281;34.132;-118.018;2023-01-29T10:35:12;99964.94;;;12.98;69.47
50368;BME280;36281;34.132;-118.018;2023-01-29T10:37:44;99969.41;;;12.98;69.54
50368;BME280;36281;34.132;-118.018;2023-01-29T10:40:17;99957.16;;;12.97;69.71
50368;BME280;36281;34.132;-118.018;2023-01-29T10:42:48;99967.66;;;12.91;70.46
50368;BME280;36281;34.132;-118.018;2023-01-29T10:45:21;99958.88;;;12.91;70.19
50368;BME280;36281;34.132;-118.018;2023-01-29T10:47:57;99961.75;;;12.89;69.87
50368;BME280;36281;34.132;-118.018;2023-01-29T10:50:39;99968.94;;;12.89;69.40
50368;BME280;36281;34.132;-118.018;2023-01-29T10:55:55;99962.56;;;12.90;70.37
50368;BME280;36281;34.132;-118.018;2023-01-29T10:58:29;99970.31;;;12.91;70.15
50368;BME280;36281;34.132;-118.018;2023-01-29T11:00:59;99966.84;;;12.91;70.40
50368;BME280;36281;34.132;-118.018;2023-01-29T11:03:28;99964.66;;;12.88;70.33
50368;BME280;36281;34.132;-118.018;2023-01-29T11:06:00;99973.44;;;12.88;70.22
50368;BME280;36281;34.132;-118.018;2023-01-29T11:08:33;99971.78;;;12.87;70.16
50368;BME280;36281;34.132;-118.018;2023-01-29T11:11:07;99976.53;;;12.85;69.43
50368;BME280;36281;34.132;-118.018;2023-01-29T11:13:37;99974.09;;;12.84;68.88
50368;BME280;36281;34.132;-118.018;2023-01-29T11:16:07;99970.63;;;12.83;68.84
50368;BME280;36281;34.132;-118.018;2023-01-29T11:18:49;99970.63;;;12.83;68.91
50368;BME280;36281;34.132;-118.018;2023-01-29T11:21:18;99965.91;;;12.85;68.88
50368;BME280;36281;34.132;-118.018;2023-01-29T11:23:46;99958.16;;;12.84;69.07
50368;BME280;36281;34.132;-118.018;2023-01-29T11:26:18;99958.72;;;12.86;69.34
50368;BME280;36281;34.132;-118.018;2023-01-29T11:28:49;99949.16;;;12.85;69.36
50368;BME280;36281;34.132;-118.018;2023-01-29T11:31:18;99947.06;;;12.87;69.27
50368;BME280;36281;34.132;-118.018;2023-01-29T11:33:49;99948.91;;;12.86;69.54
50368;BME280;36281;34.132;-118.018;2023-01-29T11:36:20;99946.25;;;12.86;70.26
50368;BME280;36281;34.132;-118.018;2023-01-29T11:38:58;99946.25;;;12.86;70.31
50368;BME280;36281;34.132;-118.018;2023-01-29T11:41:34;99935.25;;;12.83;70.24
50368;BME280;36281;34.132;-118.018;2023-01-29T11:44:25;99930.16;;;12.81;70.90
50368;BME280;36281;34.132;-118.018;2023-01-29T11:46:55;99934.31;;;12.77;71.24
50368;BME280;36281;34.132;-118.018;2023-01-29T11:49:29;99936.97;;;12.77;71.51
50368;BME280;36281;34.132;-118.018;2023-01-29T11:51:59;99932.69;;;12.76;71.70
50368;BME280;36281;34.132;-118.018;2023-01-29T11:54:30;99936.63;;;12.74;71.27
50368;BME280;36281;34.132;-118.018;2023-01-29T11:57:01;99945.84;;;12.71;71.59
50368;BME280;36281;34.132;-118.018;2023-01-29T12:02:18;99925.63;;;12.70;71.88
50368;BME280;36281;34.132;-118.018;2023-01-29T12:04:47;99926.06;;;12.67;71.68
50368;BME280;36281;34.132;-118.018;2023-01-29T12:07:16;99928.72;;;12.67;71.50
50368;BME280;36281;34.132;-118.018;2023-01-29T12:09:49;99932.84;;;12.63;71.32
50368;BME280;36281;34.132;-118.018;2023-01-29T12:12:33;99936.78;;;12.60;71.52
50368;BME280;36281;34.132;-118.018;2023-01-29T12:15:13;99935.16;;;12.59;71.38
50368;BME280;36281;34.132;-118.018;2023-01-29T12:17:43;99935.59;;;12.56;71.84
50368;BME280;36281;34.132;-118.018;2023-01-29T12:20:15;99927.03;;;12.54;71.70
50368;BME280;36281;34.132;-118.018;2023-01-29T12:22:46;99917.91;;;12.50;71.76
50368;BME280;36281;34.132;-118.018;2023-01-29T12:25:19;99920.56;;;12.50;71.88
50368;BME280;36281;34.132;-118.018;2023-01-29T12:27:52;99919.75;;;12.50;72.02
50368;BME280;36281;34.132;-118.018;2023-01-29T12:30:23;99919.97;;;12.48;72.12
50368;BME280;36281;34.132;-118.018;2023-01-29T12:32:54;99910.34;;;12.47;71.85
50368;BME280;36281;34.132;-118.018;2023-01-29T12:35:25;99905.28;;;12.46;72.26
50368;BME280;36281;34.132;-118.018;2023-01-29T12:37:56;99907.94;;;12.46;72.03
50368;BME280;36281;34.132;-118.018;2023-01-29T12:40:28;99907.34;;;12.44;71.92
50368;BME280;36281;34.132;-118.018;2023-01-29T12:42:59;99894.28;;;12.42;72.04
50368;BME280;36281;34.132;-118.018;2023-01-29T12:45:28;99903.06;;;12.42;72.38
50368;BME280;36281;34.132;-118.018;2023-01-29T12:48:00;99892.66;;;12.41;72.24
50368;BME280;36281;34.132;-118.018;2023-01-29T12:50:31;99890.25;;;12.39;72.30
50368;BME280;36281;34.132;-118.018;2023-01-29T12:53:00;99895.56;;;12.39;71.90
50368;BME280;36281;34.132;-118.018;2023-01-29T12:55:31;99889.44;;;12.39;72.00
50368;BME280;36281;34.132;-118.018;2023-01-29T12:58:08;99884.31;;;12.37;72.20
50368;BME280;36281;34.132;-118.018;2023-01-29T13:00:39;99883.50;;;12.37;72.60